createdAt,value
2022-08-29T00:01:46.089Z,96443.59
2022-08-29T00:06:50.261Z,96445.66
2022-08-29T00:11:53.501Z,96439.88
2022-08-29T00:16:56.615Z,96448.97
2022-08-29T00:21:59.828Z,96452.47
2022-08-29T00:27:06.704Z,96454.59
2022-08-29T00:32:10.071Z,96452.50
2022-08-29T00:37:14.484Z,96457.75
2022-08-29T00:42:19.089Z,96455.72
2022-08-29T00:47:28.088Z,96460.81
2022-08-29T00:52:47.204Z,96452.81
2022-08-29T00:58:00.295Z,96453.81
2022-08-29T01:03:03.794Z,96455.59
2022-08-29T01:08:07.774Z,96456.09
2022-08-29T01:13:12.425Z,96453.88
2022-08-29T01:18:17.706Z,96462.22
2022-08-29T01:23:46.940Z,96454.78
2022-08-29T01:28:53.900Z,96454.00
2022-08-29T01:33:59.289Z,96448.94
2022-08-29T01:39:02.606Z,96445.31
2022-08-29T01:44:12.867Z,96444.63
2022-08-29T01:49:19.151Z,96446.84
2022-08-29T01:54:23.682Z,96450.41
2022-08-29T01:59:31.023Z,96448.44
2022-08-29T02:04:35.565Z,96446.84
2022-08-29T02:09:38.683Z,96438.44
2022-08-29T02:14:51.602Z,96439.16
2022-08-29T02:19:54.925Z,96443.09
2022-08-29T02:24:58.114Z,96446.97
2022-08-29T02:30:01.348Z,96438.34
2022-08-29T02:35:04.687Z,96442.38
2022-08-29T02:40:09.139Z,96441.81
2022-08-29T02:45:13.175Z,96439.94
2022-08-29T02:50:17.362Z,96441.94
2022-08-29T02:55:22.836Z,96446.63
2022-08-29T03:00:28.478Z,96444.50
2022-08-29T03:05:35.756Z,96441.06
2022-08-29T03:10:39.090Z,96448.34
2022-08-29T03:15:42.544Z,96448.56
2022-08-29T03:20:48.964Z,96436.69
2022-08-29T03:25:53.317Z,96446.06
2022-08-29T03:30:56.601Z,96453.88
2022-08-29T03:35:59.755Z,96460.50
2022-08-29T03:41:02.995Z,96453.50
2022-08-29T03:46:06.575Z,96471.56
2022-08-29T03:51:10.180Z,96468.78
2022-08-29T03:56:18.177Z,96459.50
2022-08-29T04:01:25.372Z,96464.72
2022-08-29T04:06:29.262Z,96477.44
2022-08-29T04:11:32.358Z,96475.72
2022-08-29T04:16:39.741Z,96471.13
2022-08-29T04:21:43.867Z,96480.50
2022-08-29T04:26:47.388Z,96470.84
2022-08-29T04:32:08.548Z,96472.16
2022-08-29T04:37:15.107Z,96475.16
2022-08-29T04:42:20.673Z,96491.63
2022-08-29T04:47:23.865Z,96482.44
2022-08-29T04:52:27.925Z,96483.50
2022-08-29T04:57:31.034Z,96487.13
2022-08-29T05:02:34.830Z,96488.66
2022-08-29T05:07:39.301Z,96497.56
2022-08-29T05:12:44.180Z,96510.09
2022-08-29T05:17:47.458Z,96502.34
2022-08-29T05:22:50.524Z,96496.19
2022-08-29T05:27:53.659Z,96504.75
2022-08-29T05:32:57.554Z,96499.56
2022-08-29T05:38:04.741Z,96509.03
2022-08-29T05:43:12.564Z,96516.81
2022-08-29T05:48:18.119Z,96514.81
2022-08-29T05:53:22.706Z,96516.25
2022-08-29T05:58:26.082Z,96516.00
2022-08-29T06:03:30.723Z,96523.00
2022-08-29T06:08:36.512Z,96530.84
2022-08-29T06:13:40.271Z,96537.38
2022-08-29T06:18:43.890Z,96517.44
2022-08-29T06:23:48.141Z,96527.66
2022-08-29T06:28:52.236Z,96535.91
2022-08-29T06:40:43.378Z,96538.03
2022-08-29T06:59:17.942Z,96545.97
2022-08-29T07:05:11.121Z,96557.00
2022-08-29T07:16:35.833Z,96519.41
2022-08-29T07:22:46.280Z,96519.94
2022-08-29T07:28:21.780Z,96534.91
2022-08-29T07:40:06.186Z,96561.78
2022-08-29T07:52:10.948Z,96560.75
2022-08-29T08:22:26.744Z,96598.09
2022-08-29T08:28:21.116Z,96593.94
2022-08-29T08:33:51.236Z,96586.94
2022-08-29T08:39:25.574Z,96586.88
2022-08-29T08:51:24.873Z,96566.13
2022-08-29T08:57:52.596Z,96573.50
2022-08-29T09:03:42.961Z,96591.34
2022-08-29T09:09:16.606Z,96583.56
2022-08-29T09:14:33.131Z,96587.09
2022-08-29T09:25:37.053Z,96591.03
2022-08-29T09:31:33.716Z,96599.13
2022-08-29T09:42:25.657Z,96600.22
2022-08-29T09:47:36.532Z,96583.75
2022-08-29T09:52:56.945Z,96576.50
2022-08-29T09:58:06.094Z,96591.22
2022-08-29T10:03:21.158Z,96576.69
2022-08-29T10:42:19.730Z,96592.25
2022-08-29T10:54:46.049Z,96565.50
2022-08-29T11:00:32.647Z,96594.66
2022-08-29T11:06:07.632Z,96584.06
2022-08-29T11:11:31.578Z,96574.09
2022-08-29T11:17:29.056Z,96548.84
2022-08-29T11:24:17.693Z,96546.53
2022-08-29T11:29:51.468Z,96554.34
2022-08-29T11:45:02.857Z,96538.00
2022-08-29T12:01:01.026Z,96560.44
2022-08-29T12:18:36.273Z,96539.06
2022-08-29T12:23:55.916Z,96515.09
2022-08-29T12:35:58.221Z,96549.69
2022-08-29T12:41:54.293Z,96550.63
2022-08-29T12:47:36.719Z,96523.69
2022-08-29T12:53:03.355Z,96549.25
2022-08-29T13:04:52.076Z,96530.31
2022-08-29T13:16:14.740Z,96521.41
2022-08-29T13:21:57.579Z,96523.81
2022-08-29T13:27:15.692Z,96463.78
2022-08-29T13:32:40.781Z,96489.03
2022-08-29T13:38:44.814Z,96483.03
2022-08-29T13:44:26.457Z,96510.09
2022-08-29T13:49:50.994Z,96479.75
2022-08-29T13:55:20.054Z,96496.47
2022-08-29T14:00:49.841Z,96459.81
2022-08-29T14:06:12.464Z,96479.06
2022-08-29T14:11:43.888Z,96455.44
2022-08-29T14:22:46.075Z,96429.41
2022-08-29T14:40:23.836Z,96408.63
2022-08-29T14:45:55.306Z,96410.84
2022-08-29T14:51:12.464Z,96422.03
2022-08-29T14:56:54.758Z,96451.13
2022-08-29T15:07:44.110Z,96448.31
2022-08-29T15:13:01.648Z,96402.00
2022-08-29T15:19:31.573Z,96399.94
2022-08-29T15:24:35.053Z,96413.28
2022-08-29T15:30:22.455Z,96437.28
2022-08-29T15:35:52.861Z,96427.69
2022-08-29T15:41:16.637Z,96434.41
2022-08-29T15:46:32.201Z,96383.00
2022-08-29T15:57:20.857Z,96397.00
2022-08-29T16:03:18.081Z,96367.25
2022-08-29T16:08:55.418Z,96411.53
2022-08-29T16:26:16.086Z,96405.84
2022-08-29T16:31:47.949Z,96415.78
2022-08-29T16:37:22.929Z,96409.81
2022-08-29T16:43:03.419Z,96397.78
2022-08-29T16:48:46.588Z,96400.72
2022-08-29T16:54:18.439Z,96407.97
2022-08-29T16:59:37.274Z,96378.19
2022-08-29T17:05:00.485Z,96393.94
2022-08-29T17:10:24.889Z,96365.59
2022-08-29T17:15:37.338Z,96357.78
2022-08-29T17:21:23.152Z,96417.34
2022-08-29T17:26:51.325Z,96360.41
2022-08-29T17:32:21.028Z,96416.47
2022-08-29T17:43:34.663Z,96408.00
2022-08-29T17:49:39.012Z,96402.75
2022-08-29T17:55:07.226Z,96400.06
2022-08-29T18:06:32.163Z,96404.22
2022-08-29T18:11:52.303Z,96414.59
2022-08-29T18:17:07.540Z,96428.00
2022-08-29T18:22:26.697Z,96394.59
2022-08-29T18:27:34.279Z,96414.97
2022-08-29T18:33:09.340Z,96427.00
2022-08-29T18:38:11.264Z,96450.41
2022-08-29T18:43:16.053Z,96448.94
2022-08-29T18:48:19.878Z,96463.44
2022-08-29T18:53:24.813Z,96461.94
2022-08-29T18:58:30.694Z,96460.69
2022-08-29T19:03:35.070Z,96440.06
2022-08-29T19:08:39.259Z,96453.81
2022-08-29T19:13:45.129Z,96462.22
2022-08-29T19:18:49.129Z,96463.19
2022-08-29T19:23:53.232Z,96476.94
2022-08-29T19:29:02.270Z,96472.59
2022-08-29T19:34:05.520Z,96478.88
2022-08-29T19:39:11.699Z,96485.47
2022-08-29T19:44:15.174Z,96482.16
2022-08-29T19:49:18.223Z,96498.66
2022-08-29T19:54:25.082Z,96502.44
2022-08-29T19:59:28.147Z,96502.91
2022-08-29T20:04:32.630Z,96504.16
2022-08-29T20:09:36.818Z,96498.47
2022-08-29T20:14:40.808Z,96506.13
2022-08-29T20:19:43.843Z,96497.19
2022-08-29T20:25:07.761Z,96502.47
2022-08-29T20:30:14.613Z,96497.16
2022-08-29T20:35:37.800Z,96509.59
2022-08-29T20:40:47.912Z,96495.59
2022-08-29T20:45:51.291Z,96501.63
2022-08-29T20:51:02.660Z,96502.34
2022-08-29T20:56:06.083Z,96504.06
2022-08-29T21:01:09.270Z,96497.63
2022-08-29T21:06:13.373Z,96507.25
2022-08-29T21:11:17.072Z,96507.28
2022-08-29T21:16:20.339Z,96507.47
2022-08-29T21:21:25.102Z,96511.78
2022-08-29T21:26:28.240Z,96516.38
2022-08-29T21:31:35.396Z,96515.28
2022-08-29T21:36:38.953Z,96498.34
2022-08-29T21:41:44.520Z,96507.09
2022-08-29T21:46:48.567Z,96503.97
2022-08-29T21:51:51.612Z,96513.22
2022-08-29T21:56:56.238Z,96514.47
2022-08-29T22:01:59.354Z,96511.16
2022-08-29T22:07:06.611Z,96515.91
2022-08-29T22:12:11.479Z,96520.50
2022-08-29T22:17:15.123Z,96519.09
2022-08-29T22:22:19.251Z,96511.84
2022-08-29T22:27:25.106Z,96515.31
2022-08-29T22:32:35.778Z,96514.47
2022-08-29T22:37:39.533Z,96521.09
2022-08-29T22:42:44.588Z,96512.34
2022-08-29T22:47:47.947Z,96519.91
2022-08-29T22:52:56.875Z,96513.88
2022-08-29T22:58:01.179Z,96502.41
2022-08-29T23:03:04.635Z,96524.19
2022-08-29T23:08:09.093Z,96517.59
2022-08-29T23:13:13.267Z,96510.06
2022-08-29T23:18:18.788Z,96519.88
2022-08-29T23:23:22.660Z,96523.38
2022-08-29T23:28:25.774Z,96525.16
2022-08-29T23:33:30.338Z,96515.09
2022-08-29T23:38:33.429Z,96515.38
2022-08-29T23:43:39.099Z,96498.88
2022-08-29T23:48:45.686Z,96505.81
2022-08-29T23:53:49.543Z,96504.78
2022-08-29T23:58:55.665Z,96503.53
